Time;durP1;ratioP1;P1;durP2;ratioP2;P2;SDS_P1;SDS_P2;PMS_P1;PMS_P2;Temp;Humidity;BMP_temperature;BMP_pressure;BME280_temperature;BME280_humidity;BME280_pressure;Samples;Min_cycle;Max_cycle;Signal;HPM_P1;HPM_P2
2022/01/08 00:01:51;;;;;;;9.17;6.77;;;;;;;;;;6117802;28;20813;-65
2022/01/08 00:05:12;;;;;;;7.27;6.40;;;;;;;;;;6108076;28;20598;-65
2022/01/08 00:08:33;;;;;;;7.67;5.60;;;;;;;;;;6100694;28;20260;-65
2022/01/08 00:11:55;;;;;;;7.33;6.60;;;;;;;;;;6103693;28;20229;-65
2022/01/08 00:15:21;;;;;;;7.27;6.67;;;;;;;;;;6106962;28;20240;-66
2022/01/08 00:18:43;;;;;;;9.23;6.67;;;;;;;;;;6115138;28;20240;-65
2022/01/08 00:22:03;;;;;;;9.70;7.20;;;;;;;;;;6111848;28;20602;-65
2022/01/08 00:25:24;;;;;;;7.90;6.67;;;;;;;;;;6108072;28;20775;-67
2022/01/08 00:28:45;;;;;;;12.40;7.43;;;;;;;;;;6097031;28;20239;-64
2022/01/08 00:32:06;;;;;;;7.80;6.93;;;;;;;;;;6103851;28;20366;-65
2022/01/08 00:35:28;;;;;;;6.57;5.97;;;;;;;;;;6106220;28;20232;-64
2022/01/08 00:38:48;;;;;;;6.70;6.03;;;;;;;;;;6104806;28;20686;-66
2022/01/08 00:42:09;;;;;;;7.00;6.40;;;;;;;;;;6106108;28;20645;-64
2022/01/08 00:45:30;;;;;;;9.27;8.37;;;;;;;;;;6102070;28;20797;-64
2022/01/08 00:48:50;;;;;;;8.60;7.77;;;;;;;;;;6105060;28;20590;-65
2022/01/08 00:52:12;;;;;;;12.80;8.90;;;;;;;;;;6113693;28;20236;-65
2022/01/08 00:55:32;;;;;;;11.47;7.63;;;;;;;;;;6107574;28;20239;-66
2022/01/08 00:58:53;;;;;;;10.30;8.60;;;;;;;;;;6104013;28;21699;-66
2022/01/08 01:02:14;;;;;;;12.87;10.20;;;;;;;;;;6107421;28;20239;-65
2022/01/08 01:05:34;;;;;;;11.97;9.13;;;;;;;;;;6110059;28;20602;-65
2022/01/08 01:08:56;;;;;;;10.73;8.80;;;;;;;;;;6109791;28;20228;-64
2022/01/08 01:12:16;;;;;;;11.73;10.67;;;;;;;;;;6110886;28;20235;-64
2022/01/08 01:15:37;;;;;;;14.27;10.93;;;;;;;;;;6106556;28;20232;-65
2022/01/08 01:18:59;;;;;;;10.27;9.27;;;;;;;;;;6106227;28;20602;-65
2022/01/08 01:22:24;;;;;;;11.97;10.70;;;;;;;;;;6103787;28;20657;-65
2022/01/08 01:25:50;;;;;;;13.43;9.57;;;;;;;;;;6107414;28;20236;-64
2022/01/08 01:29:27;;;;;;;13.00;11.53;;;;;;;;;;6105241;28;20219;-64
2022/01/08 01:47:30;;;;;;;12.70;11.47;;;;;;;;;;6097690;28;20341;-64
2022/01/08 01:50:50;;;;;;;15.13;13.63;;;;;;;;;;6101877;28;20258;-65
2022/01/08 01:54:10;;;;;;;15.33;13.80;;;;;;;;;;6102861;28;20235;-64
2022/01/08 01:57:31;;;;;;;14.93;12.03;;;;;;;;;;6098168;28;20259;-65
2022/01/08 02:00:53;;;;;;;11.53;10.43;;;;;;;;;;6098342;28;20242;-65
2022/01/08 02:04:14;;;;;;;12.70;11.20;;;;;;;;;;6099675;28;20240;-65
2022/01/08 02:07:34;;;;;;;11.97;10.43;;;;;;;;;;6100028;28;20236;-65
2022/01/08 02:10:55;;;;;;;11.87;10.73;;;;;;;;;;6102826;28;20232;-64
2022/01/08 02:14:15;;;;;;;10.37;9.33;;;;;;;;;;6105910;28;20698;-65
2022/01/08 02:17:37;;;;;;;11.07;10.00;;;;;;;;;;6101199;28;20519;-66
2022/01/08 02:21:00;;;;;;;13.10;11.20;;;;;;;;;;6102075;28;20231;-65
2022/01/08 02:24:21;;;;;;;11.67;10.30;;;;;;;;;;6106244;28;20614;-65
2022/01/08 02:27:42;;;;;;;12.53;11.30;;;;;;;;;;6104081;28;20570;-64
2022/01/08 02:31:02;;;;;;;12.60;11.53;;;;;;;;;;6103402;28;20251;-65
2022/01/08 02:34:24;;;;;;;13.23;11.57;;;;;;;;;;6109846;28;20244;-64
2022/01/08 02:37:46;;;;;;;12.03;10.87;;;;;;;;;;6108050;28;20247;-65
2022/01/08 02:41:07;;;;;;;11.20;10.07;;;;;;;;;;6108778;28;20266;-65
2022/01/08 02:44:28;;;;;;;11.70;10.60;;;;;;;;;;6105872;28;20239;-66
2022/01/08 02:47:48;;;;;;;10.33;9.40;;;;;;;;;;6103491;28;20228;-65
2022/01/08 02:51:09;;;;;;;11.37;10.37;;;;;;;;;;6102448;28;20575;-65
2022/01/08 02:54:33;;;;;;;9.80;8.80;;;;;;;;;;6105618;28;20228;-64
2022/01/08 02:57:53;;;;;;;10.50;9.03;;;;;;;;;;6108275;28;20718;-65
2022/01/08 03:01:14;;;;;;;10.83;9.90;;;;;;;;;;6102733;28;20618;-66
2022/01/08 03:04:35;;;;;;;11.67;10.57;;;;;;;;;;6104701;28;20224;-65
2022/01/08 03:07:56;;;;;;;14.93;13.73;;;;;;;;;;6105181;28;20236;-65
2022/01/08 03:11:18;;;;;;;12.77;11.67;;;;;;;;;;6105650;28;20235;-66
2022/01/08 03:14:39;;;;;;;11.43;10.33;;;;;;;;;;6103019;28;20575;-65
2022/01/08 03:17:59;;;;;;;12.00;10.90;;;;;;;;;;6104560;28;20255;-64
2022/01/08 03:21:22;;;;;;;13.13;11.83;;;;;;;;;;6100902;28;20240;-65
2022/01/08 03:24:42;;;;;;;13.17;10.77;;;;;;;;;;6105684;28;20223;-65
2022/01/08 03:28:07;;;;;;;11.13;10.17;;;;;;;;;;6107802;28;20231;-64
2022/01/08 03:31:27;;;;;;;12.50;11.20;;;;;;;;;;6103854;28;22648;-65
2022/01/08 03:34:48;;;;;;;12.90;11.77;;;;;;;;;;6103938;28;20244;-64
2022/01/08 03:38:08;;;;;;;12.57;11.33;;;;;;;;;;6103360;28;20709;-66
2022/01/08 03:41:29;;;;;;;12.93;11.70;;;;;;;;;;6102051;28;20521;-66
2022/01/08 03:44:51;;;;;;;13.73;11.97;;;;;;;;;;6101063;28;20240;-66
2022/01/08 03:48:26;;;;;;;14.50;13.20;;;;;;;;;;6104071;28;20236;-63
2022/01/08 03:51:46;;;;;;;12.57;10.53;;;;;;;;;;6100617;28;20235;-65
2022/01/08 03:55:07;;;;;;;14.67;13.17;;;;;;;;;;6106219;28;20578;-66
2022/01/08 03:58:28;;;;;;;13.83;12.33;;;;;;;;;;6104372;28;20285;-65
2022/01/08 04:01:50;;;;;;;14.37;11.70;;;;;;;;;;6102211;28;20244;-64
2022/01/08 04:05:11;;;;;;;15.90;11.33;;;;;;;;;;6105311;28;20239;-65
2022/01/08 04:08:31;;;;;;;11.57;10.00;;;;;;;;;;6102520;28;20273;-65
2022/01/08 04:11:52;;;;;;;18.50;13.20;;;;;;;;;;6110336;28;20500;-65
2022/01/08 04:15:33;;;;;;;18.83;12.53;;;;;;;;;;6106946;28;20223;-64
2022/01/08 04:18:57;;;;;;;14.10;12.17;;;;;;;;;;6100801;28;20236;-64
2022/01/08 04:22:18;;;;;;;15.43;13.07;;;;;;;;;;6105848;28;20240;-65
2022/01/08 04:25:38;;;;;;;14.57;12.83;;;;;;;;;;6103510;28;21317;-65
2022/01/08 04:29:03;;;;;;;15.00;13.50;;;;;;;;;;6100691;28;20259;-65
2022/01/08 04:32:24;;;;;;;16.70;14.90;;;;;;;;;;6103450;28;20318;-65
2022/01/08 04:35:46;;;;;;;14.83;13.30;;;;;;;;;;6113228;28;20227;-67
2022/01/08 04:39:07;;;;;;;21.63;15.80;;;;;;;;;;6110952;28;20236;-65
2022/01/08 04:42:30;;;;;;;17.90;14.97;;;;;;;;;;6109698;28;20239;-65
2022/01/08 04:45:51;;;;;;;17.60;12.87;;;;;;;;;;6113630;28;21136;-65
2022/01/08 04:49:12;;;;;;;15.83;13.63;;;;;;;;;;6103601;28;20662;-64
2022/01/08 04:52:34;;;;;;;17.43;13.77;;;;;;;;;;6103235;28;21391;-64
2022/01/08 04:55:54;;;;;;;16.07;14.53;;;;;;;;;;6104011;28;20228;-64
2022/01/08 04:59:15;;;;;;;18.43;14.47;;;;;;;;;;6100578;28;20725;-64
2022/01/08 05:02:35;;;;;;;12.83;11.53;;;;;;;;;;6100476;28;20235;-65
2022/01/08 05:05:56;;;;;;;15.00;13.50;;;;;;;;;;6101691;28;20232;-65
2022/01/08 05:09:20;;;;;;;16.93;14.80;;;;;;;;;;6102215;28;20236;-64
2022/01/08 05:12:40;;;;;;;19.73;14.30;;;;;;;;;;6101083;28;20622;-65
2022/01/08 05:16:01;;;;;;;17.13;14.47;;;;;;;;;;6101727;28;20233;-65
2022/01/08 05:19:26;;;;;;;18.93;13.60;;;;;;;;;;6102129;28;20295;-64
2022/01/08 05:22:52;;;;;;;15.80;12.70;;;;;;;;;;6102295;28;20689;-65
2022/01/08 05:26:14;;;;;;;14.53;12.73;;;;;;;;;;6102831;28;20236;-65
2022/01/08 05:29:35;;;;;;;13.00;11.67;;;;;;;;;;6103674;28;20734;-65
2022/01/08 05:32:56;;;;;;;16.00;14.27;;;;;;;;;;6106256;28;20577;-64
2022/01/08 05:36:19;;;;;;;14.23;12.03;;;;;;;;;;6101475;28;20314;-65
2022/01/08 05:39:40;;;;;;;15.87;11.97;;;;;;;;;;6101275;28;20228;-64
2022/01/08 05:43:02;;;;;;;16.40;12.63;;;;;;;;;;6099540;28;20290;-65
2022/01/08 05:46:23;;;;;;;14.57;13.07;;;;;;;;;;6102914;28;20239;-64
2022/01/08 05:49:43;;;;;;;14.73;12.17;;;;;;;;;;6104748;28;20269;-65
2022/01/08 05:53:03;;;;;;;17.73;12.93;;;;;;;;;;6100264;28;20574;-64
2022/01/08 05:56:24;;;;;;;13.90;11.17;;;;;;;;;;6099209;28;21615;-65
2022/01/08 05:59:46;;;;;;;17.53;14.13;;;;;;;;;;6096357;28;20256;-64
2022/01/08 06:03:09;;;;;;;18.07;14.83;;;;;;;;;;6099569;28;20232;-64
2022/01/08 06:06:30;;;;;;;18.07;16.13;;;;;;;;;;6102185;28;20244;-65
2022/01/08 06:09:50;;;;;;;17.63;15.83;;;;;;;;;;6105463;28;20231;-65
2022/01/08 06:13:13;;;;;;;20.73;17.83;;;;;;;;;;6106432;28;20227;-65
2022/01/08 06:16:37;;;;;;;19.60;16.67;;;;;;;;;;6105409;28;20228;-65
2022/01/08 06:19:58;;;;;;;21.27;16.50;;;;;;;;;;6105379;28;20228;-65
2022/01/08 06:23:18;;;;;;;24.40;17.97;;;;;;;;;;6107465;28;20496;-65
2022/01/08 06:26:39;;;;;;;21.27;17.97;;;;;;;;;;6108393;28;20235;-65
2022/01/08 06:29:59;;;;;;;19.73;17.57;;;;;;;;;;6106971;28;20264;-64
2022/01/08 06:33:21;;;;;;;21.77;16.87;;;;;;;;;;6103931;28;20268;-64
2022/01/08 06:36:41;;;;;;;21.17;17.33;;;;;;;;;;6110584;28;20270;-64
2022/01/08 06:40:02;;;;;;;26.73;18.23;;;;;;;;;;6109637;28;20257;-64
2022/01/08 06:43:23;;;;;;;17.57;15.63;;;;;;;;;;6111935;28;20240;-64
2022/01/08 06:46:43;;;;;;;21.73;16.50;;;;;;;;;;6108500;28;20235;-64
2022/01/08 06:50:06;;;;;;;19.67;17.60;;;;;;;;;;6109974;28;20227;-64
2022/01/08 06:53:26;;;;;;;21.17;18.87;;;;;;;;;;6110088;28;20235;-66
2022/01/08 06:56:49;;;;;;;19.90;16.67;;;;;;;;;;6104439;28;20231;-65
2022/01/08 07:00:10;;;;;;;18.20;16.30;;;;;;;;;;6103405;28;20232;-65
2022/01/08 07:03:31;;;;;;;17.83;14.70;;;;;;;;;;6093492;28;20235;-65
2022/01/08 07:06:53;;;;;;;22.60;18.70;;;;;;;;;;6104717;28;20228;-64
2022/01/08 07:10:14;;;;;;;18.63;15.67;;;;;;;;;;6103109;28;20220;-65
2022/01/08 07:13:34;;;;;;;22.57;17.70;;;;;;;;;;6106479;28;20255;-65
2022/01/08 07:16:55;;;;;;;20.23;16.00;;;;;;;;;;6110679;28;20232;-64
2022/01/08 07:20:15;;;;;;;20.57;15.33;;;;;;;;;;6110024;28;20498;-65
2022/01/08 07:23:37;;;;;;;20.50;16.43;;;;;;;;;;6099690;28;20232;-64
2022/01/08 07:26:58;;;;;;;17.77;14.97;;;;;;;;;;6105556;28;20236;-64
2022/01/08 07:30:19;;;;;;;16.43;12.07;;;;;;;;;;6106731;28;20267;-65
2022/01/08 07:33:39;;;;;;;19.17;15.57;;;;;;;;;;6105144;28;20292;-64
2022/01/08 07:37:00;;;;;;;21.73;17.87;;;;;;;;;;6096776;28;20626;-64
2022/01/08 07:40:22;;;;;;;19.20;17.30;;;;;;;;;;6096609;28;20244;-66
2022/01/08 07:43:43;;;;;;;23.53;17.37;;;;;;;;;;6100889;28;20235;-66
2022/01/08 07:47:04;;;;;;;21.43;18.70;;;;;;;;;;6102953;28;20264;-64
2022/01/08 07:50:24;;;;;;;20.37;18.27;;;;;;;;;;6102305;28;20598;-67
2022/01/08 07:53:45;;;;;;;21.60;17.53;;;;;;;;;;6105365;28;20255;-65
2022/01/08 07:57:07;;;;;;;23.03;18.30;;;;;;;;;;6105243;28;20228;-65
2022/01/08 08:00:28;;;;;;;19.40;15.63;;;;;;;;;;6102201;28;20311;-65
2022/01/08 08:03:48;;;;;;;22.80;18.37;;;;;;;;;;6100109;28;20240;-65
2022/01/08 08:07:11;;;;;;;24.07;19.83;;;;;;;;;;6103654;28;20231;-66
2022/01/08 08:10:32;;;;;;;24.30;20.53;;;;;;;;;;6102888;28;20524;-65
2022/01/08 08:13:56;;;;;;;25.43;20.93;;;;;;;;;;6100206;28;20231;-65
2022/01/08 08:17:16;;;;;;;22.00;18.80;;;;;;;;;;6096589;28;21550;-65
2022/01/08 08:20:37;;;;;;;21.97;18.97;;;;;;;;;;6095618;28;20245;-66
2022/01/08 08:23:57;;;;;;;25.17;21.03;;;;;;;;;;6101854;28;20236;-65
2022/01/08 08:27:17;;;;;;;25.07;22.03;;;;;;;;;;6099300;28;20232;-65
2022/01/08 08:30:41;;;;;;;21.73;16.10;;;;;;;;;;6102978;28;20316;-64
2022/01/08 08:34:02;;;;;;;21.73;18.30;;;;;;;;;;6089995;28;20343;-65
2022/01/08 08:37:22;;;;;;;24.07;20.13;;;;;;;;;;6097185;28;20551;-66
2022/01/08 08:40:47;;;;;;;24.87;21.30;;;;;;;;;;6093867;28;20243;-65
2022/01/08 08:44:10;;;;;;;21.87;19.50;;;;;;;;;;6087456;28;20232;-65
2022/01/08 08:47:32;;;;;;;19.57;15.90;;;;;;;;;;6103976;28;20232;-66
2022/01/08 08:50:53;;;;;;;26.00;18.87;;;;;;;;;;6078363;28;20233;-66
2022/01/08 08:54:13;;;;;;;22.57;18.03;;;;;;;;;;6101870;28;20236;-64
2022/01/08 08:57:34;;;;;;;24.57;19.97;;;;;;;;;;6102521;28;20500;-65
2022/01/08 09:00:54;;;;;;;21.90;19.50;;;;;;;;;;6099452;28;20281;-64
2022/01/08 09:04:19;;;;;;;24.37;19.17;;;;;;;;;;6102209;28;20223;-64
2022/01/08 09:07:39;;;;;;;24.50;20.07;;;;;;;;;;6101804;28;20235;-65
2022/01/08 09:11:00;;;;;;;25.83;20.77;;;;;;;;;;6097436;28;20613;-64
2022/01/08 09:14:20;;;;;;;24.90;19.10;;;;;;;;;;6096919;28;20295;-65
2022/01/08 09:17:41;;;;;;;19.67;17.07;;;;;;;;;;6109373;28;20692;-65
2022/01/08 09:21:03;;;;;;;24.07;16.40;;;;;;;;;;6104403;28;20232;-65
2022/01/08 09:24:24;;;;;;;24.50;18.03;;;;;;;;;;6098564;28;20280;-65
2022/01/08 09:27:45;;;;;;;20.27;16.40;;;;;;;;;;6094745;28;20268;-66
2022/01/08 09:31:06;;;;;;;19.17;17.13;;;;;;;;;;6097432;28;20231;-65
2022/01/08 09:34:29;;;;;;;20.03;16.13;;;;;;;;;;6095464;28;20305;-65
2022/01/08 09:37:53;;;;;;;19.27;15.63;;;;;;;;;;6091445;28;20277;-66
2022/01/08 09:41:14;;;;;;;19.43;13.93;;;;;;;;;;6091318;28;20240;-65
2022/01/08 09:44:35;;;;;;;17.10;14.63;;;;;;;;;;6082463;28;20622;-64
2022/01/08 09:47:56;;;;;;;18.77;15.53;;;;;;;;;;6093408;28;20239;-65
2022/01/08 09:51:17;;;;;;;20.00;14.77;;;;;;;;;;6094719;28;20233;-65
2022/01/08 09:54:40;;;;;;;15.87;12.97;;;;;;;;;;6096029;28;20791;-65
2022/01/08 10:02:23;;;;;;;12.77;11.37;;;;;;;;;;6094058;28;21108;-66
2022/01/08 10:05:44;;;;;;;14.20;12.13;;;;;;;;;;6097438;28;20649;-65
2022/01/08 10:09:05;;;;;;;13.93;12.40;;;;;;;;;;6095657;28;20236;-65
2022/01/08 10:12:38;;;;;;;13.47;10.60;;;;;;;;;;6096730;28;20235;-64
2022/01/08 10:19:38;;;;;;;11.80;10.70;;;;;;;;;;6095236;28;20252;-65
2022/01/08 10:22:59;;;;;;;13.17;10.90;;;;;;;;;;6094953;28;20244;-65
2022/01/08 10:26:20;;;;;;;13.63;11.20;;;;;;;;;;6099856;28;20262;-65
2022/01/08 10:29:53;;;;;;;10.87;9.47;;;;;;;;;;6097063;28;20232;-63
2022/01/08 10:33:14;;;;;;;11.27;10.17;;;;;;;;;;6097846;28;21991;-65
2022/01/08 10:36:36;;;;;;;11.43;10.30;;;;;;;;;;6097744;28;20232;-65
2022/01/08 10:39:56;;;;;;;11.70;10.37;;;;;;;;;;6099568;28;20228;-65
2022/01/08 10:43:27;;;;;;;12.90;10.30;;;;;;;;;;6098239;28;20517;-65
2022/01/08 10:46:55;;;;;;;9.90;9.00;;;;;;;;;;6098367;28;20227;-65
2022/01/08 10:50:23;;;;;;;9.97;8.97;;;;;;;;;;6098354;28;20349;-66
2022/01/08 10:53:55;;;;;;;11.17;9.23;;;;;;;;;;6102861;28;20290;-65
2022/01/08 10:57:15;;;;;;;13.83;9.70;;;;;;;;;;6104903;28;20234;-65
2022/01/08 11:00:36;;;;;;;9.97;8.93;;;;;;;;;;6103189;28;20314;-65
2022/01/08 11:03:58;;;;;;;13.80;10.97;;;;;;;;;;6108356;28;20524;-65
2022/01/08 11:07:20;;;;;;;13.10;10.20;;;;;;;;;;6104674;28;20228;-66
2022/01/08 11:10:42;;;;;;;9.93;8.97;;;;;;;;;;6107314;28;20977;-65
2022/01/08 11:14:04;;;;;;;13.70;11.37;;;;;;;;;;6106438;28;20227;-66
2022/01/08 11:17:26;;;;;;;9.83;8.17;;;;;;;;;;6109688;28;20808;-66
2022/01/08 11:20:49;;;;;;;9.57;8.57;;;;;;;;;;6108160;28;20541;-66
2022/01/08 11:24:09;;;;;;;12.10;9.27;;;;;;;;;;6107582;28;20228;-69
2022/01/08 11:27:35;;;;;;;12.20;8.73;;;;;;;;;;6111094;28;20244;-70
2022/01/08 11:30:58;;;;;;;11.77;8.53;;;;;;;;;;6104007;28;20256;-70
2022/01/08 11:34:22;;;;;;;9.20;8.27;;;;;;;;;;6107524;28;20264;-70
2022/01/08 11:37:47;;;;;;;10.47;8.00;;;;;;;;;;6103064;28;20315;-70
2022/01/08 11:41:07;;;;;;;10.00;7.67;;;;;;;;;;6100226;28;20228;-69
2022/01/08 11:44:30;;;;;;;9.63;8.20;;;;;;;;;;6102082;28;20252;-69
2022/01/08 11:47:53;;;;;;;8.50;7.73;;;;;;;;;;6095878;28;20224;-69
2022/01/08 11:51:15;;;;;;;11.17;8.47;;;;;;;;;;6096663;28;20232;-67
2022/01/08 11:54:47;;;;;;;11.07;7.93;;;;;;;;;;6098422;28;20709;-68
2022/01/08 11:58:14;;;;;;;9.63;7.93;;;;;;;;;;6091703;28;20597;-68
2022/01/08 12:01:36;;;;;;;8.47;6.77;;;;;;;;;;6089178;28;20243;-68
2022/01/08 12:04:56;;;;;;;7.10;6.40;;;;;;;;;;6100350;28;20511;-68
2022/01/08 12:08:18;;;;;;;8.03;7.07;;;;;;;;;;6099496;28;20262;-67
2022/01/08 12:11:51;;;;;;;10.33;7.27;;;;;;;;;;6102105;28;20235;-67
2022/01/08 12:15:12;;;;;;;9.87;7.33;;;;;;;;;;6098838;28;20239;-67
2022/01/08 12:18:48;;;;;;;10.97;7.07;;;;;;;;;;6101407;28;20228;-68
2022/01/08 12:22:27;;;;;;;9.80;6.90;;;;;;;;;;6108824;28;20255;-67
2022/01/08 12:25:47;;;;;;;6.87;6.17;;;;;;;;;;6114651;28;20314;-67
2022/01/08 12:29:10;;;;;;;6.13;5.43;;;;;;;;;;6112716;28;20312;-68
2022/01/08 12:32:35;;;;;;;11.70;7.17;;;;;;;;;;6115397;28;20231;-68
2022/01/08 12:36:15;;;;;;;14.57;7.27;;;;;;;;;;6112750;28;20239;-67
2022/01/08 12:39:50;;;;;;;7.17;5.77;;;;;;;;;;6106606;28;20231;-69
2022/01/08 12:43:17;;;;;;;9.40;6.83;;;;;;;;;;6103080;28;20229;-69
2022/01/08 12:46:38;;;;;;;10.07;6.90;;;;;;;;;;6104590;28;20228;-67
2022/01/08 12:50:18;;;;;;;8.30;7.50;;;;;;;;;;6106054;28;20261;-68
2022/01/08 12:53:39;;;;;;;8.40;7.17;;;;;;;;;;6097540;28;20278;-67
2022/01/08 12:57:05;;;;;;;8.07;6.60;;;;;;;;;;6105935;28;20235;-68
2022/01/08 13:00:26;;;;;;;9.40;7.93;;;;;;;;;;6085839;28;21266;-67
2022/01/08 13:03:47;;;;;;;11.77;8.27;;;;;;;;;;6097573;28;20604;-69
2022/01/08 13:07:07;;;;;;;9.00;7.63;;;;;;;;;;6097180;28;20532;-68
2022/01/08 13:10:31;;;;;;;9.33;8.47;;;;;;;;;;6096455;28;20232;-68
2022/01/08 13:13:56;;;;;;;11.87;7.53;;;;;;;;;;6114243;28;20763;-69
2022/01/08 13:17:23;;;;;;;9.50;8.40;;;;;;;;;;6097553;28;20244;-68
2022/01/08 13:20:43;;;;;;;9.57;6.73;;;;;;;;;;6098167;28;20235;-70
2022/01/08 13:24:05;;;;;;;12.47;8.67;;;;;;;;;;6104948;28;20236;-69
2022/01/08 13:27:27;;;;;;;15.23;8.80;;;;;;;;;;6101045;28;20233;-68
2022/01/08 13:30:49;;;;;;;9.83;7.13;;;;;;;;;;6095987;28;20241;-67
2022/01/08 13:34:10;;;;;;;11.13;7.00;;;;;;;;;;6098721;28;20240;-67
2022/01/08 13:37:31;;;;;;;11.83;7.80;;;;;;;;;;6109701;28;20256;-65
2022/01/08 13:40:51;;;;;;;10.00;7.90;;;;;;;;;;6108892;28;20243;-67
2022/01/08 13:44:12;;;;;;;11.33;9.53;;;;;;;;;;6107172;28;20582;-66
2022/01/08 13:47:35;;;;;;;11.50;8.20;;;;;;;;;;6105539;28;20568;-67
2022/01/08 13:50:58;;;;;;;12.07;7.87;;;;;;;;;;6103802;28;20431;-66
2022/01/08 13:54:19;;;;;;;10.03;7.50;;;;;;;;;;6104987;28;20227;-66
2022/01/08 13:57:40;;;;;;;10.27;8.00;;;;;;;;;;6105948;28;20240;-67
2022/01/08 14:01:01;;;;;;;12.20;8.47;;;;;;;;;;6103624;28;20236;-67
2022/01/08 14:04:24;;;;;;;12.00;8.23;;;;;;;;;;6105830;28;20909;-66
2022/01/08 14:07:44;;;;;;;15.17;9.90;;;;;;;;;;6106671;28;20239;-67
2022/01/08 14:11:06;;;;;;;9.80;7.90;;;;;;;;;;6103950;28;20231;-67
2022/01/08 14:14:39;;;;;;;13.50;8.43;;;;;;;;;;6105629;28;20238;-67
2022/01/08 14:18:08;;;;;;;14.13;8.57;;;;;;;;;;6102081;28;20236;-66
2022/01/08 14:21:29;;;;;;;11.43;9.07;;;;;;;;;;6105798;28;20236;-67
2022/01/08 14:24:51;;;;;;;12.47;8.10;;;;;;;;;;6105247;28;20271;-67
2022/01/08 14:28:15;;;;;;;13.47;10.50;;;;;;;;;;6106885;28;20338;-66
2022/01/08 14:31:36;;;;;;;13.03;9.47;;;;;;;;;;6107739;28;20239;-67
2022/01/08 14:35:00;;;;;;;13.97;9.53;;;;;;;;;;6108628;28;20243;-67
2022/01/08 14:38:22;;;;;;;11.87;9.93;;;;;;;;;;6109238;28;20247;-66
2022/01/08 14:41:45;;;;;;;14.20;9.93;;;;;;;;;;6107467;28;20235;-65
2022/01/08 14:45:06;;;;;;;9.97;8.47;;;;;;;;;;6109555;28;20235;-67
2022/01/08 14:48:28;;;;;;;10.27;8.20;;;;;;;;;;6110538;28;20308;-67
2022/01/08 14:51:49;;;;;;;13.00;8.57;;;;;;;;;;6105448;28;20248;-67
2022/01/08 14:55:12;;;;;;;9.30;7.93;;;;;;;;;;6109289;28;20224;-66
2022/01/08 14:58:32;;;;;;;12.20;9.63;;;;;;;;;;6108599;28;20236;-67
2022/01/08 15:01:54;;;;;;;9.03;7.10;;;;;;;;;;6100546;28;20543;-67
2022/01/08 15:05:14;;;;;;;15.13;9.70;;;;;;;;;;6099826;28;20244;-68
2022/01/08 15:08:35;;;;;;;14.60;9.90;;;;;;;;;;6108902;28;20228;-68
2022/01/08 15:11:57;;;;;;;11.30;10.20;;;;;;;;;;6110186;28;20235;-69
2022/01/08 15:15:17;;;;;;;9.87;8.90;;;;;;;;;;6113719;28;20239;-66
2022/01/08 15:18:38;;;;;;;14.20;9.73;;;;;;;;;;6121530;28;20736;-67
2022/01/08 15:21:58;;;;;;;13.80;9.87;;;;;;;;;;6117085;28;20580;-66
2022/01/08 15:25:19;;;;;;;13.67;9.60;;;;;;;;;;6117781;28;20227;-68
2022/01/08 15:28:41;;;;;;;11.43;9.43;;;;;;;;;;6112413;28;20228;-69
2022/01/08 15:32:03;;;;;;;9.80;8.57;;;;;;;;;;6119454;28;20509;-68
2022/01/08 15:35:23;;;;;;;13.33;9.73;;;;;;;;;;6117643;28;20232;-68
2022/01/08 15:38:44;;;;;;;11.57;9.97;;;;;;;;;;6117464;28;20240;-69
2022/01/08 15:42:04;;;;;;;11.57;10.37;;;;;;;;;;6113969;28;20243;-67
2022/01/08 15:45:27;;;;;;;12.47;11.07;;;;;;;;;;6116804;28;20598;-68
2022/01/08 15:48:47;;;;;;;13.90;12.00;;;;;;;;;;6109019;28;20233;-67
2022/01/08 15:52:08;;;;;;;18.67;14.53;;;;;;;;;;6115267;28;20232;-68
2022/01/08 15:55:29;;;;;;;14.93;9.67;;;;;;;;;;6110761;28;20307;-67
2022/01/08 15:58:50;;;;;;;12.77;11.40;;;;;;;;;;6097692;28;20232;-69
2022/01/08 16:02:12;;;;;;;13.67;10.97;;;;;;;;;;6109736;28;21679;-67
2022/01/08 16:05:33;;;;;;;14.67;12.00;;;;;;;;;;6109780;28;20233;-68
2022/01/08 16:08:54;;;;;;;14.67;12.23;;;;;;;;;;6110506;28;20259;-69
2022/01/08 16:12:15;;;;;;;17.40;13.07;;;;;;;;;;6109557;28;20626;-68
2022/01/08 16:15:35;;;;;;;21.33;12.93;;;;;;;;;;6107997;28;20247;-68
2022/01/08 16:18:58;;;;;;;20.07;15.17;;;;;;;;;;6110692;28;20236;-67
2022/01/08 16:22:18;;;;;;;16.77;13.33;;;;;;;;;;6111949;28;20235;-67
2022/01/08 16:25:40;;;;;;;16.53;14.23;;;;;;;;;;6113921;28;20228;-67
2022/01/08 16:29:00;;;;;;;22.13;18.00;;;;;;;;;;6113808;28;20242;-65
2022/01/08 16:32:21;;;;;;;21.13;16.27;;;;;;;;;;6114687;28;20500;-68
2022/01/08 16:35:45;;;;;;;18.37;14.97;;;;;;;;;;6113607;28;20232;-68
2022/01/08 16:39:05;;;;;;;21.27;15.20;;;;;;;;;;6111499;28;20841;-67
2022/01/08 16:42:27;;;;;;;22.53;18.23;;;;;;;;;;6115427;28;20228;-68
2022/01/08 16:45:49;;;;;;;18.37;14.57;;;;;;;;;;6114609;28;20440;-69
2022/01/08 16:49:10;;;;;;;18.97;14.27;;;;;;;;;;6110597;28;20233;-68
2022/01/08 16:52:32;;;;;;;18.83;14.33;;;;;;;;;;6109708;28;20232;-69
2022/01/08 16:55:53;;;;;;;17.03;14.07;;;;;;;;;;6102860;28;20237;-67
2022/01/08 16:59:14;;;;;;;19.03;14.30;;;;;;;;;;6105649;28;20224;-67
2022/01/08 17:02:36;;;;;;;17.50;13.97;;;;;;;;;;6104565;28;20252;-67
2022/01/08 17:05:56;;;;;;;19.63;13.00;;;;;;;;;;6111593;28;20228;-67
2022/01/08 17:09:18;;;;;;;19.40;13.47;;;;;;;;;;6104126;28;20232;-67
2022/01/08 17:12:38;;;;;;;18.93;13.63;;;;;;;;;;6113545;28;20224;-66
2022/01/08 17:15:59;;;;;;;15.77;12.73;;;;;;;;;;6107358;28;20514;-65
2022/01/08 17:19:20;;;;;;;17.17;13.73;;;;;;;;;;6106527;28;20251;-67
2022/01/08 17:22:40;;;;;;;19.07;13.27;;;;;;;;;;6105623;28;21211;-67
2022/01/08 17:26:02;;;;;;;23.70;13.80;;;;;;;;;;6106089;28;20232;-66
2022/01/08 17:29:23;;;;;;;16.53;13.70;;;;;;;;;;6097841;28;20331;-66
2022/01/08 17:32:43;;;;;;;21.33;13.80;;;;;;;;;;6098256;28;20339;-66
2022/01/08 17:36:04;;;;;;;16.87;13.37;;;;;;;;;;6108445;28;20236;-67
2022/01/08 17:39:25;;;;;;;22.70;14.33;;;;;;;;;;6104860;28;20225;-67
2022/01/08 17:42:47;;;;;;;16.90;12.77;;;;;;;;;;6108457;28;20236;-68
2022/01/08 17:46:08;;;;;;;18.10;12.37;;;;;;;;;;6101643;28;20256;-67
2022/01/08 17:49:28;;;;;;;17.03;13.17;;;;;;;;;;6098521;28;20228;-67
2022/01/08 17:52:49;;;;;;;13.43;11.97;;;;;;;;;;6096778;28;20239;-66
2022/01/08 17:56:10;;;;;;;18.77;13.57;;;;;;;;;;6096956;28;20243;-68
2022/01/08 17:59:32;;;;;;;17.33;12.53;;;;;;;;;;6097394;28;20259;-67
2022/01/08 18:02:52;;;;;;;17.40;13.30;;;;;;;;;;6088822;28;20239;-67
2022/01/08 18:06:15;;;;;;;14.67;12.63;;;;;;;;;;6098396;28;20358;-67
2022/01/08 18:09:35;;;;;;;19.03;13.10;;;;;;;;;;6094114;28;20232;-67
2022/01/08 18:12:56;;;;;;;18.77;13.50;;;;;;;;;;6094132;28;20257;-67
2022/01/08 18:16:18;;;;;;;14.53;11.40;;;;;;;;;;6094575;28;20228;-66
2022/01/08 18:19:39;;;;;;;14.20;11.00;;;;;;;;;;6088698;28;20677;-67
2022/01/08 18:23:00;;;;;;;16.17;12.57;;;;;;;;;;6091159;28;20626;-67
2022/01/08 18:26:20;;;;;;;12.53;10.77;;;;;;;;;;6090515;28;20227;-67
2022/01/08 18:29:42;;;;;;;13.10;10.43;;;;;;;;;;6087111;28;20236;-67
2022/01/08 18:33:05;;;;;;;12.77;10.40;;;;;;;;;;6084601;28;20630;-67
2022/01/08 18:36:27;;;;;;;13.47;9.20;;;;;;;;;;6087429;28;20335;-67
2022/01/08 18:39:47;;;;;;;13.27;8.33;;;;;;;;;;6087967;28;20819;-68
2022/01/08 18:43:08;;;;;;;13.57;9.50;;;;;;;;;;6079044;28;20243;-67
2022/01/08 18:46:29;;;;;;;11.60;9.00;;;;;;;;;;6079917;28;20271;-68
2022/01/08 18:49:51;;;;;;;12.37;7.90;;;;;;;;;;6085312;28;20314;-68
2022/01/08 18:53:12;;;;;;;11.00;8.23;;;;;;;;;;6088396;28;20776;-67
2022/01/08 18:56:32;;;;;;;12.63;7.63;;;;;;;;;;6092471;28;20241;-67
2022/01/08 18:59:54;;;;;;;15.87;8.70;;;;;;;;;;6089779;28;20240;-67
2022/01/08 19:03:15;;;;;;;10.70;6.93;;;;;;;;;;6095852;29;20231;-68
2022/01/08 19:06:37;;;;;;;10.33;7.10;;;;;;;;;;6089858;28;20235;-68
2022/01/08 19:09:58;;;;;;;10.50;7.37;;;;;;;;;;6097550;28;20602;-68
2022/01/08 19:13:18;;;;;;;7.33;6.40;;;;;;;;;;6102556;28;20580;-69
2022/01/08 19:16:39;;;;;;;8.60;5.63;;;;;;;;;;6108998;28;20236;-68
2022/01/08 19:20:00;;;;;;;11.40;6.33;;;;;;;;;;6117644;28;20235;-68
2022/01/08 19:23:22;;;;;;;13.60;6.93;;;;;;;;;;6114977;28;20243;-68
2022/01/08 19:26:44;;;;;;;8.60;6.57;;;;;;;;;;6109973;28;20229;-68
2022/01/08 19:30:06;;;;;;;9.27;6.17;;;;;;;;;;6116869;28;20232;-68
2022/01/08 19:33:27;;;;;;;7.60;6.83;;;;;;;;;;6106421;28;20330;-69
2022/01/08 19:36:48;;;;;;;7.40;5.57;;;;;;;;;;6110951;28;20232;-68
2022/01/08 19:40:10;;;;;;;7.90;6.80;;;;;;;;;;6111323;28;20251;-68
2022/01/08 19:43:30;;;;;;;8.77;5.77;;;;;;;;;;6113723;28;20522;-70
2022/01/08 19:46:51;;;;;;;7.57;6.80;;;;;;;;;;6111086;28;20228;-70
2022/01/08 19:50:13;;;;;;;11.30;7.10;;;;;;;;;;6113504;28;20232;-67
2022/01/08 19:53:33;;;;;;;6.23;5.20;;;;;;;;;;6112831;28;20652;-68
2022/01/08 19:56:55;;;;;;;8.97;6.20;;;;;;;;;;6115266;28;20235;-69
2022/01/08 20:00:16;;;;;;;8.30;6.00;;;;;;;;;;6109487;28;20236;-69
2022/01/08 20:03:37;;;;;;;6.60;6.00;;;;;;;;;;6115913;28;20819;-69
2022/01/08 20:06:58;;;;;;;8.90;5.87;;;;;;;;;;6109007;28;20632;-68